sensor_id;sensor_type;location;lat;lon;timestamp;P1;durP1;ratioP1;P2;durP2;ratioP2
40284;SDS011;25997;50.214;19.354;2023-02-15T00:01:06;48.88;;;38.05;;
40284;SDS011;25997;50.214;19.354;2023-02-15T00:04:12;28.85;;;22.48;;
40284;SDS011;25997;50.214;19.354;2023-02-15T00:07:18;29.88;;;23.60;;
40284;SDS011;25997;50.214;19.354;2023-02-15T00:10:21;29.23;;;24.30;;
40284;SDS011;25997;50.214;19.354;2023-02-15T00:13:24;30.63;;;26.27;;
40284;SDS011;25997;50.214;19.354;2023-02-15T00:16:26;25.67;;;21.58;;
40284;SDS011;25997;50.214;19.354;2023-02-15T00:19:29;26.27;;;20.83;;
40284;SDS011;25997;50.214;19.354;2023-02-15T00:22:33;24.23;;;18.42;;
40284;SDS011;25997;50.214;19.354;2023-02-15T00:25:35;24.17;;;19.38;;
40284;SDS011;25997;50.214;19.354;2023-02-15T00:28:38;23.80;;;19.23;;
40284;SDS011;25997;50.214;19.354;2023-02-15T00:31:40;21.00;;;18.42;;
40284;SDS011;25997;50.214;19.354;2023-02-15T00:34:44;23.08;;;18.77;;
40284;SDS011;25997;50.214;19.354;2023-02-15T00:37:48;24.70;;;18.75;;
40284;SDS011;25997;50.214;19.354;2023-02-15T00:40:52;24.73;;;20.00;;
40284;SDS011;25997;50.214;19.354;2023-02-15T00:43:55;24.95;;;19.85;;
40284;SDS011;25997;50.214;19.354;2023-02-15T00:46:57;23.52;;;18.27;;
40284;SDS011;25997;50.214;19.354;2023-02-15T00:50:00;23.25;;;18.23;;
40284;SDS011;25997;50.214;19.354;2023-02-15T00:53:05;26.08;;;20.38;;
40284;SDS011;25997;50.214;19.354;2023-02-15T00:56:08;27.05;;;20.60;;
40284;SDS011;25997;50.214;19.354;2023-02-15T00:59:10;27.27;;;21.30;;
40284;SDS011;25997;50.214;19.354;2023-02-15T01:02:13;29.08;;;21.52;;
40284;SDS011;25997;50.214;19.354;2023-02-15T01:05:15;32.03;;;21.05;;
40284;SDS011;25997;50.214;19.354;2023-02-15T01:08:19;27.67;;;19.55;;
40284;SDS011;25997;50.214;19.354;2023-02-15T01:11:23;29.40;;;21.38;;
40284;SDS011;25997;50.214;19.354;2023-02-15T01:14:26;30.23;;;21.02;;
40284;SDS011;25997;50.214;19.354;2023-02-15T01:17:29;37.20;;;23.35;;
40284;SDS011;25997;50.214;19.354;2023-02-15T01:20:34;36.47;;;23.55;;
40284;SDS011;25997;50.214;19.354;2023-02-15T01:23:41;35.00;;;23.35;;
40284;SDS011;25997;50.214;19.354;2023-02-15T01:26:44;36.33;;;22.25;;
40284;SDS011;25997;50.214;19.354;2023-02-15T01:29:47;32.75;;;22.27;;
40284;SDS011;25997;50.214;19.354;2023-02-15T01:32:49;35.83;;;24.25;;
40284;SDS011;25997;50.214;19.354;2023-02-15T01:35:55;34.03;;;22.65;;
40284;SDS011;25997;50.214;19.354;2023-02-15T01:39:00;30.42;;;22.25;;
40284;SDS011;25997;50.214;19.354;2023-02-15T01:42:07;31.70;;;23.35;;
40284;SDS011;25997;50.214;19.354;2023-02-15T01:45:17;34.00;;;24.13;;
40284;SDS011;25997;50.214;19.354;2023-02-15T01:48:24;32.38;;;24.27;;
40284;SDS011;25997;50.214;19.354;2023-02-15T01:51:30;38.00;;;24.33;;
40284;SDS011;25997;50.214;19.354;2023-02-15T01:54:37;33.83;;;22.95;;
40284;SDS011;25997;50.214;19.354;2023-02-15T01:57:43;37.72;;;24.02;;
40284;SDS011;25997;50.214;19.354;2023-02-15T02:00:47;31.85;;;24.05;;
40284;SDS011;25997;50.214;19.354;2023-02-15T02:03:53;31.40;;;22.35;;
40284;SDS011;25997;50.214;19.354;2023-02-15T02:07:04;30.40;;;22.67;;
40284;SDS011;25997;50.214;19.354;2023-02-15T02:10:11;31.17;;;23.63;;
40284;SDS011;25997;50.214;19.354;2023-02-15T02:13:15;28.88;;;21.75;;
40284;SDS011;25997;50.214;19.354;2023-02-15T02:16:20;31.05;;;20.85;;
40284;SDS011;25997;50.214;19.354;2023-02-15T02:19:36;28.33;;;20.73;;
40284;SDS011;25997;50.214;19.354;2023-02-15T02:23:18;31.63;;;20.17;;
40284;SDS011;25997;50.214;19.354;2023-02-15T02:26:51;29.65;;;21.40;;
40284;SDS011;25997;50.214;19.354;2023-02-15T02:30:28;30.23;;;22.02;;
40284;SDS011;25997;50.214;19.354;2023-02-15T02:33:53;33.28;;;21.52;;
40284;SDS011;25997;50.214;19.354;2023-02-15T02:37:03;27.98;;;19.67;;
40284;SDS011;25997;50.214;19.354;2023-02-15T02:40:15;25.67;;;18.77;;
40284;SDS011;25997;50.214;19.354;2023-02-15T02:43:25;26.83;;;20.52;;
40284;SDS011;25997;50.214;19.354;2023-02-15T02:46:37;30.85;;;22.27;;
40284;SDS011;25997;50.214;19.354;2023-02-15T02:49:46;27.02;;;20.13;;
40284;SDS011;25997;50.214;19.354;2023-02-15T02:52:49;31.98;;;22.80;;
40284;SDS011;25997;50.214;19.354;2023-02-15T02:55:53;29.38;;;23.10;;
40284;SDS011;25997;50.214;19.354;2023-02-15T02:59:00;28.02;;;22.02;;
40284;SDS011;25997;50.214;19.354;2023-02-15T03:02:07;29.27;;;22.17;;
40284;SDS011;25997;50.214;19.354;2023-02-15T03:05:16;27.20;;;20.77;;
40284;SDS011;25997;50.214;19.354;2023-02-15T03:08:23;26.80;;;20.73;;
40284;SDS011;25997;50.214;19.354;2023-02-15T03:11:31;30.55;;;22.02;;
40284;SDS011;25997;50.214;19.354;2023-02-15T03:14:34;25.25;;;20.42;;
40284;SDS011;25997;50.214;19.354;2023-02-15T03:17:40;25.85;;;20.58;;
40284;SDS011;25997;50.214;19.354;2023-02-15T03:20:47;26.58;;;19.98;;
40284;SDS011;25997;50.214;19.354;2023-02-15T03:23:52;24.52;;;21.52;;
40284;SDS011;25997;50.214;19.354;2023-02-15T03:26:59;25.83;;;20.70;;
40284;SDS011;25997;50.214;19.354;2023-02-15T03:30:06;24.75;;;19.45;;
40284;SDS011;25997;50.214;19.354;2023-02-15T03:33:10;24.33;;;19.25;;
40284;SDS011;25997;50.214;19.354;2023-02-15T03:36:17;21.85;;;17.25;;
40284;SDS011;25997;50.214;19.354;2023-02-15T03:39:24;24.95;;;18.00;;
40284;SDS011;25997;50.214;19.354;2023-02-15T03:42:34;22.35;;;18.65;;
40284;SDS011;25997;50.214;19.354;2023-02-15T03:45:42;20.45;;;17.00;;
40284;SDS011;25997;50.214;19.354;2023-02-15T03:48:56;21.33;;;17.45;;
40284;SDS011;25997;50.214;19.354;2023-02-15T03:52:04;21.63;;;18.17;;
40284;SDS011;25997;50.214;19.354;2023-02-15T03:55:10;18.40;;;16.13;;
40284;SDS011;25997;50.214;19.354;2023-02-15T03:58:13;23.25;;;18.33;;
40284;SDS011;25997;50.214;19.354;2023-02-15T04:01:33;19.38;;;16.77;;
40284;SDS011;25997;50.214;19.354;2023-02-15T04:04:58;19.88;;;17.65;;
40284;SDS011;25997;50.214;19.354;2023-02-15T04:08:03;20.80;;;18.60;;
40284;SDS011;25997;50.214;19.354;2023-02-15T04:11:05;19.08;;;16.58;;
40284;SDS011;25997;50.214;19.354;2023-02-15T04:14:07;17.80;;;15.85;;
40284;SDS011;25997;50.214;19.354;2023-02-15T04:17:23;19.00;;;16.30;;
40284;SDS011;25997;50.214;19.354;2023-02-15T04:20:26;19.00;;;16.13;;
40284;SDS011;25997;50.214;19.354;2023-02-15T04:23:47;16.67;;;14.88;;
40284;SDS011;25997;50.214;19.354;2023-02-15T04:27:07;16.05;;;13.98;;
40284;SDS011;25997;50.214;19.354;2023-02-15T04:30:11;17.05;;;13.57;;
40284;SDS011;25997;50.214;19.354;2023-02-15T04:33:15;18.27;;;15.05;;
40284;SDS011;25997;50.214;19.354;2023-02-15T04:36:17;20.95;;;17.00;;
40284;SDS011;25997;50.214;19.354;2023-02-15T04:39:21;18.85;;;15.95;;
40284;SDS011;25997;50.214;19.354;2023-02-15T04:42:24;22.85;;;19.35;;
40284;SDS011;25997;50.214;19.354;2023-02-15T04:45:26;21.50;;;16.90;;
40284;SDS011;25997;50.214;19.354;2023-02-15T04:48:29;18.38;;;16.48;;
40284;SDS011;25997;50.214;19.354;2023-02-15T04:51:33;17.52;;;14.20;;
40284;SDS011;25997;50.214;19.354;2023-02-15T04:54:37;17.70;;;15.85;;
40284;SDS011;25997;50.214;19.354;2023-02-15T04:57:40;21.00;;;18.83;;
40284;SDS011;25997;50.214;19.354;2023-02-15T05:00:42;18.77;;;16.70;;
40284;SDS011;25997;50.214;19.354;2023-02-15T05:03:45;19.60;;;17.40;;
40284;SDS011;25997;50.214;19.354;2023-02-15T05:06:47;22.83;;;17.77;;
40284;SDS011;25997;50.214;19.354;2023-02-15T05:09:51;19.17;;;16.15;;
40284;SDS011;25997;50.214;19.354;2023-02-15T05:12:54;24.42;;;20.02;;
40284;SDS011;25997;50.214;19.354;2023-02-15T05:15:57;21.20;;;18.35;;
40284;SDS011;25997;50.214;19.354;2023-02-15T05:18:59;21.48;;;18.23;;
40284;SDS011;25997;50.214;19.354;2023-02-15T05:22:03;22.98;;;19.27;;
40284;SDS011;25997;50.214;19.354;2023-02-15T05:25:07;21.25;;;17.63;;
40284;SDS011;25997;50.214;19.354;2023-02-15T05:28:27;22.30;;;18.60;;
40284;SDS011;25997;50.214;19.354;2023-02-15T05:31:30;23.38;;;20.05;;
40284;SDS011;25997;50.214;19.354;2023-02-15T05:34:33;23.90;;;20.15;;
40284;SDS011;25997;50.214;19.354;2023-02-15T05:37:36;22.55;;;19.55;;
40284;SDS011;25997;50.214;19.354;2023-02-15T05:40:39;27.08;;;21.20;;
40284;SDS011;25997;50.214;19.354;2023-02-15T05:43:42;24.10;;;18.58;;
40284;SDS011;25997;50.214;19.354;2023-02-15T05:46:44;23.25;;;20.10;;
40284;SDS011;25997;50.214;19.354;2023-02-15T05:49:47;22.17;;;19.05;;
40284;SDS011;25997;50.214;19.354;2023-02-15T05:52:50;25.50;;;20.63;;
40284;SDS011;25997;50.214;19.354;2023-02-15T05:55:54;22.52;;;19.83;;
40284;SDS011;25997;50.214;19.354;2023-02-15T05:58:59;27.17;;;21.10;;
40284;SDS011;25997;50.214;19.354;2023-02-15T06:02:02;26.55;;;20.73;;
40284;SDS011;25997;50.214;19.354;2023-02-15T06:05:05;25.02;;;22.30;;
40284;SDS011;25997;50.214;19.354;2023-02-15T06:08:08;26.70;;;23.50;;
40284;SDS011;25997;50.214;19.354;2023-02-15T06:11:12;48.40;;;40.85;;
40284;SDS011;25997;50.214;19.354;2023-02-15T06:14:15;36.75;;;31.67;;
40284;SDS011;25997;50.214;19.354;2023-02-15T06:17:18;39.13;;;33.97;;
40284;SDS011;25997;50.214;19.354;2023-02-15T06:20:22;32.10;;;25.33;;
40284;SDS011;25997;50.214;19.354;2023-02-15T06:23:24;28.92;;;23.90;;
40284;SDS011;25997;50.214;19.354;2023-02-15T06:26:28;24.20;;;21.60;;
40284;SDS011;25997;50.214;19.354;2023-02-15T06:29:31;24.85;;;21.65;;
40284;SDS011;25997;50.214;19.354;2023-02-15T06:32:33;25.13;;;22.45;;
40284;SDS011;25997;50.214;19.354;2023-02-15T06:35:36;29.10;;;23.67;;
40284;SDS011;25997;50.214;19.354;2023-02-15T06:38:38;27.80;;;24.08;;
40284;SDS011;25997;50.214;19.354;2023-02-15T06:41:42;28.40;;;25.17;;
40284;SDS011;25997;50.214;19.354;2023-02-15T06:44:45;32.38;;;26.85;;
40284;SDS011;25997;50.214;19.354;2023-02-15T06:47:47;29.70;;;26.13;;
40284;SDS011;25997;50.214;19.354;2023-02-15T06:50:50;30.52;;;25.20;;
40284;SDS011;25997;50.214;19.354;2023-02-15T06:53:52;32.67;;;27.33;;
40284;SDS011;25997;50.214;19.354;2023-02-15T06:56:56;35.50;;;28.00;;
40284;SDS011;25997;50.214;19.354;2023-02-15T06:59:59;30.23;;;25.52;;
40284;SDS011;25997;50.214;19.354;2023-02-15T07:03:01;29.83;;;23.52;;
40284;SDS011;25997;50.214;19.354;2023-02-15T07:06:04;31.15;;;24.40;;
40284;SDS011;25997;50.214;19.354;2023-02-15T07:09:08;26.80;;;23.15;;
40284;SDS011;25997;50.214;19.354;2023-02-15T07:12:13;24.17;;;21.55;;
40284;SDS011;25997;50.214;19.354;2023-02-15T07:15:32;28.83;;;25.52;;
40284;SDS011;25997;50.214;19.354;2023-02-15T07:18:35;26.88;;;24.00;;
40284;SDS011;25997;50.214;19.354;2023-02-15T07:21:37;30.38;;;25.38;;
40284;SDS011;25997;50.214;19.354;2023-02-15T07:24:40;42.35;;;31.25;;
40284;SDS011;25997;50.214;19.354;2023-02-15T07:27:44;28.65;;;24.63;;
40284;SDS011;25997;50.214;19.354;2023-02-15T07:30:47;28.35;;;23.33;;
40284;SDS011;25997;50.214;19.354;2023-02-15T07:33:49;27.30;;;24.05;;
40284;SDS011;25997;50.214;19.354;2023-02-15T07:36:52;31.48;;;25.33;;
40284;SDS011;25997;50.214;19.354;2023-02-15T07:39:54;27.15;;;23.13;;
40284;SDS011;25997;50.214;19.354;2023-02-15T07:42:58;24.60;;;21.30;;
40284;SDS011;25997;50.214;19.354;2023-02-15T07:46:02;26.67;;;22.15;;
40284;SDS011;25997;50.214;19.354;2023-02-15T07:49:05;25.00;;;22.13;;
40284;SDS011;25997;50.214;19.354;2023-02-15T07:52:08;27.50;;;23.08;;
40284;SDS011;25997;50.214;19.354;2023-02-15T07:55:11;25.73;;;23.10;;
40284;SDS011;25997;50.214;19.354;2023-02-15T07:58:15;26.27;;;23.10;;
40284;SDS011;25997;50.214;19.354;2023-02-15T08:01:18;27.40;;;23.75;;
40284;SDS011;25997;50.214;19.354;2023-02-15T08:04:22;28.08;;;24.90;;
40284;SDS011;25997;50.214;19.354;2023-02-15T08:07:25;32.88;;;26.45;;
40284;SDS011;25997;50.214;19.354;2023-02-15T08:10:28;31.30;;;25.42;;
40284;SDS011;25997;50.214;19.354;2023-02-15T08:13:46;32.97;;;27.33;;
40284;SDS011;25997;50.214;19.354;2023-02-15T08:16:55;27.92;;;24.90;;
40284;SDS011;25997;50.214;19.354;2023-02-15T08:20:03;28.98;;;24.88;;
40284;SDS011;25997;50.214;19.354;2023-02-15T08:23:06;29.25;;;26.08;;
40284;SDS011;25997;50.214;19.354;2023-02-15T08:26:08;29.45;;;24.65;;
40284;SDS011;25997;50.214;19.354;2023-02-15T08:29:12;29.40;;;24.10;;
40284;SDS011;25997;50.214;19.354;2023-02-15T08:32:16;28.33;;;25.25;;
40284;SDS011;25997;50.214;19.354;2023-02-15T08:35:21;30.90;;;27.60;;
40284;SDS011;25997;50.214;19.354;2023-02-15T08:38:24;30.33;;;27.23;;
40284;SDS011;25997;50.214;19.354;2023-02-15T08:41:27;31.83;;;25.40;;
40284;SDS011;25997;50.214;19.354;2023-02-15T08:44:32;29.38;;;26.20;;
40284;SDS011;25997;50.214;19.354;2023-02-15T08:47:35;29.88;;;25.48;;
40284;SDS011;25997;50.214;19.354;2023-02-15T08:50:37;27.35;;;24.50;;
40284;SDS011;25997;50.214;19.354;2023-02-15T08:53:40;28.65;;;25.55;;
40284;SDS011;25997;50.214;19.354;2023-02-15T08:56:44;27.33;;;24.08;;
40284;SDS011;25997;50.214;19.354;2023-02-15T08:59:48;29.85;;;24.92;;
40284;SDS011;25997;50.214;19.354;2023-02-15T09:02:51;29.88;;;26.80;;
40284;SDS011;25997;50.214;19.354;2023-02-15T09:05:57;28.85;;;25.67;;
40284;SDS011;25997;50.214;19.354;2023-02-15T09:09:01;29.02;;;25.75;;
40284;SDS011;25997;50.214;19.354;2023-02-15T09:12:04;30.30;;;26.33;;
40284;SDS011;25997;50.214;19.354;2023-02-15T09:15:08;28.48;;;25.33;;
40284;SDS011;25997;50.214;19.354;2023-02-15T09:18:12;28.40;;;25.13;;
40284;SDS011;25997;50.214;19.354;2023-02-15T09:21:18;25.90;;;23.17;;
40284;SDS011;25997;50.214;19.354;2023-02-15T09:24:22;27.98;;;25.00;;
40284;SDS011;25997;50.214;19.354;2023-02-15T09:27:25;33.13;;;26.50;;
40284;SDS011;25997;50.214;19.354;2023-02-15T09:30:29;26.63;;;23.77;;
40284;SDS011;25997;50.214;19.354;2023-02-15T09:33:32;31.77;;;27.20;;
40284;SDS011;25997;50.214;19.354;2023-02-15T09:36:37;28.50;;;25.48;;
40284;SDS011;25997;50.214;19.354;2023-02-15T09:39:41;28.38;;;24.92;;
40284;SDS011;25997;50.214;19.354;2023-02-15T09:46:30;31.58;;;26.17;;
40284;SDS011;25997;50.214;19.354;2023-02-15T09:49:47;25.95;;;23.23;;
40284;SDS011;25997;50.214;19.354;2023-02-15T09:53:07;26.77;;;23.98;;
40284;SDS011;25997;50.214;19.354;2023-02-15T09:56:24;34.10;;;28.45;;
40284;SDS011;25997;50.214;19.354;2023-02-15T09:59:39;30.70;;;25.77;;
40284;SDS011;25997;50.214;19.354;2023-02-15T10:03:03;29.77;;;24.77;;
40284;SDS011;25997;50.214;19.354;2023-02-15T10:06:28;30.00;;;26.80;;
40284;SDS011;25997;50.214;19.354;2023-02-15T10:09:48;30.83;;;26.33;;
40284;SDS011;25997;50.214;19.354;2023-02-15T10:13:05;42.60;;;34.73;;
40284;SDS011;25997;50.214;19.354;2023-02-15T10:16:22;44.72;;;36.38;;
40284;SDS011;25997;50.214;19.354;2023-02-15T10:22:41;30.48;;;25.70;;
40284;SDS011;25997;50.214;19.354;2023-02-15T10:25:58;26.85;;;24.10;;
40284;SDS011;25997;50.214;19.354;2023-02-15T10:29:16;27.08;;;24.08;;
40284;SDS011;25997;50.214;19.354;2023-02-15T10:32:28;31.77;;;28.45;;
40284;SDS011;25997;50.214;19.354;2023-02-15T10:35:41;29.65;;;25.75;;
40284;SDS011;25997;50.214;19.354;2023-02-15T10:38:54;31.63;;;25.73;;
40284;SDS011;25997;50.214;19.354;2023-02-15T10:42:06;28.58;;;25.52;;
40284;SDS011;25997;50.214;19.354;2023-02-15T10:45:16;34.08;;;30.13;;
40284;SDS011;25997;50.214;19.354;2023-02-15T10:48:31;29.33;;;26.42;;
40284;SDS011;25997;50.214;19.354;2023-02-15T10:52:02;29.08;;;26.17;;
40284;SDS011;25997;50.214;19.354;2023-02-15T10:55:20;29.55;;;26.13;;
40284;SDS011;25997;50.214;19.354;2023-02-15T10:58:38;25.35;;;22.90;;
40284;SDS011;25997;50.214;19.354;2023-02-15T11:01:54;28.17;;;25.25;;
40284;SDS011;25997;50.214;19.354;2023-02-15T11:05:07;34.22;;;30.48;;
40284;SDS011;25997;50.214;19.354;2023-02-15T11:08:31;27.90;;;25.08;;
40284;SDS011;25997;50.214;19.354;2023-02-15T11:11:37;26.00;;;23.40;;
40284;SDS011;25997;50.214;19.354;2023-02-15T11:14:44;26.52;;;23.92;;
40284;SDS011;25997;50.214;19.354;2023-02-15T11:17:52;32.55;;;28.23;;
40284;SDS011;25997;50.214;19.354;2023-02-15T11:21:01;26.63;;;24.00;;
40284;SDS011;25997;50.214;19.354;2023-02-15T11:24:10;26.92;;;24.27;;
40284;SDS011;25997;50.214;19.354;2023-02-15T11:27:16;30.50;;;27.48;;
40284;SDS011;25997;50.214;19.354;2023-02-15T11:30:23;26.93;;;24.23;;
40284;SDS011;25997;50.214;19.354;2023-02-15T11:33:29;28.70;;;25.75;;
40284;SDS011;25997;50.214;19.354;2023-02-15T11:36:36;29.13;;;26.13;;
40284;SDS011;25997;50.214;19.354;2023-02-15T11:39:43;28.52;;;25.52;;
40284;SDS011;25997;50.214;19.354;2023-02-15T11:42:53;31.08;;;28.05;;
40284;SDS011;25997;50.214;19.354;2023-02-15T11:45:58;26.15;;;23.63;;
40284;SDS011;25997;50.214;19.354;2023-02-15T11:49:01;27.05;;;24.20;;
40284;SDS011;25997;50.214;19.354;2023-02-15T11:52:05;26.85;;;24.15;;
40284;SDS011;25997;50.214;19.354;2023-02-15T11:55:12;27.48;;;24.88;;
40284;SDS011;25997;50.214;19.354;2023-02-15T11:58:25;29.88;;;26.67;;
40284;SDS011;25997;50.214;19.354;2023-02-15T12:01:32;31.20;;;28.10;;
40284;SDS011;25997;50.214;19.354;2023-02-15T12:04:38;27.83;;;24.92;;
40284;SDS011;25997;50.214;19.354;2023-02-15T12:07:46;28.88;;;25.85;;
40284;SDS011;25997;50.214;19.354;2023-02-15T12:11:00;27.10;;;24.70;;
40284;SDS011;25997;50.214;19.354;2023-02-15T12:14:09;28.48;;;25.63;;
40284;SDS011;25997;50.214;19.354;2023-02-15T12:17:16;30.05;;;27.23;;
40284;SDS011;25997;50.214;19.354;2023-02-15T12:20:24;32.15;;;29.17;;
40284;SDS011;25997;50.214;19.354;2023-02-15T12:23:32;27.88;;;25.17;;
40284;SDS011;25997;50.214;19.354;2023-02-15T12:26:38;29.00;;;25.13;;
40284;SDS011;25997;50.214;19.354;2023-02-15T12:29:40;25.33;;;22.90;;
40284;SDS011;25997;50.214;19.354;2023-02-15T12:32:47;28.83;;;25.77;;
40284;SDS011;25997;50.214;19.354;2023-02-15T12:35:55;29.10;;;25.98;;
40284;SDS011;25997;50.214;19.354;2023-02-15T12:42:40;25.90;;;23.38;;
40284;SDS011;25997;50.214;19.354;2023-02-15T12:45:44;25.58;;;22.95;;
40284;SDS011;25997;50.214;19.354;2023-02-15T12:48:46;26.15;;;23.65;;
40284;SDS011;25997;50.214;19.354;2023-02-15T12:52:22;28.27;;;25.42;;
40284;SDS011;25997;50.214;19.354;2023-02-15T12:55:27;30.13;;;27.23;;
40284;SDS011;25997;50.214;19.354;2023-02-15T12:58:32;27.83;;;25.25;;
40284;SDS011;25997;50.214;19.354;2023-02-15T13:01:35;27.98;;;25.13;;
40284;SDS011;25997;50.214;19.354;2023-02-15T13:04:38;25.13;;;22.63;;
40284;SDS011;25997;50.214;19.354;2023-02-15T13:07:50;27.15;;;24.52;;
40284;SDS011;25997;50.214;19.354;2023-02-15T13:10:57;24.92;;;22.58;;
40284;SDS011;25997;50.214;19.354;2023-02-15T13:14:14;25.17;;;22.80;;
40284;SDS011;25997;50.214;19.354;2023-02-15T13:17:20;25.98;;;23.48;;
40284;SDS011;25997;50.214;19.354;2023-02-15T13:20:29;26.23;;;23.63;;
40284;SDS011;25997;50.214;19.354;2023-02-15T13:23:33;27.60;;;24.75;;
40284;SDS011;25997;50.214;19.354;2023-02-15T13:26:36;24.13;;;21.83;;
40284;SDS011;25997;50.214;19.354;2023-02-15T13:29:41;23.80;;;21.33;;
40284;SDS011;25997;50.214;19.354;2023-02-15T13:32:46;27.73;;;25.25;;
40284;SDS011;25997;50.214;19.354;2023-02-15T13:35:55;25.52;;;23.15;;
40284;SDS011;25997;50.214;19.354;2023-02-15T13:39:07;27.00;;;24.40;;
40284;SDS011;25997;50.214;19.354;2023-02-15T13:42:20;21.98;;;19.77;;
40284;SDS011;25997;50.214;19.354;2023-02-15T13:45:30;25.30;;;22.95;;
40284;SDS011;25997;50.214;19.354;2023-02-15T13:48:42;25.42;;;22.75;;
40284;SDS011;25997;50.214;19.354;2023-02-15T13:51:52;20.25;;;18.17;;
40284;SDS011;25997;50.214;19.354;2023-02-15T13:55:13;38.40;;;31.33;;
40284;SDS011;25997;50.214;19.354;2023-02-15T14:09:28;20.08;;;18.13;;
40284;SDS011;25997;50.214;19.354;2023-02-15T14:12:46;25.73;;;22.80;;
40284;SDS011;25997;50.214;19.354;2023-02-15T14:16:00;21.48;;;19.38;;
40284;SDS011;25997;50.214;19.354;2023-02-15T14:19:14;22.92;;;20.63;;
40284;SDS011;25997;50.214;19.354;2023-02-15T14:22:25;26.10;;;23.27;;
40284;SDS011;25997;50.214;19.354;2023-02-15T14:25:37;21.90;;;19.73;;
40284;SDS011;25997;50.214;19.354;2023-02-15T14:31:53;23.27;;;20.77;;
40284;SDS011;25997;50.214;19.354;2023-02-15T14:34:59;23.13;;;20.63;;
40284;SDS011;25997;50.214;19.354;2023-02-15T14:38:06;30.92;;;27.85;;
40284;SDS011;25997;50.214;19.354;2023-02-15T14:41:17;27.23;;;24.42;;
40284;SDS011;25997;50.214;19.354;2023-02-15T14:44:27;23.50;;;21.13;;
40284;SDS011;25997;50.214;19.354;2023-02-15T14:47:38;19.92;;;17.92;;
40284;SDS011;25997;50.214;19.354;2023-02-15T14:50:46;21.23;;;19.20;;
40284;SDS011;25997;50.214;19.354;2023-02-15T14:53:51;20.30;;;18.25;;
40284;SDS011;25997;50.214;19.354;2023-02-15T15:00:36;20.55;;;18.45;;
40284;SDS011;25997;50.214;19.354;2023-02-15T15:03:42;21.25;;;18.80;;
40284;SDS011;25997;50.214;19.354;2023-02-15T15:06:57;19.88;;;17.08;;
40284;SDS011;25997;50.214;19.354;2023-02-15T15:10:05;20.80;;;18.65;;
40284;SDS011;25997;50.214;19.354;2023-02-15T15:16:57;23.75;;;21.40;;
40284;SDS011;25997;50.214;19.354;2023-02-15T15:20:00;22.35;;;19.85;;
40284;SDS011;25997;50.214;19.354;2023-02-15T15:26:42;19.52;;;17.50;;
40284;SDS011;25997;50.214;19.354;2023-02-15T15:29:47;23.25;;;20.80;;
40284;SDS011;25997;50.214;19.354;2023-02-15T15:32:52;28.13;;;25.52;;
40284;SDS011;25997;50.214;19.354;2023-02-15T15:36:07;39.70;;;36.13;;
40284;SDS011;25997;50.214;19.354;2023-02-15T15:39:31;32.33;;;29.17;;
40284;SDS011;25997;50.214;19.354;2023-02-15T15:46:41;26.17;;;23.60;;
40284;SDS011;25997;50.214;19.354;2023-02-15T15:50:04;26.90;;;24.25;;
40284;SDS011;25997;50.214;19.354;2023-02-15T15:53:16;32.83;;;29.25;;
40284;SDS011;25997;50.214;19.354;2023-02-15T15:56:22;46.47;;;41.20;;
40284;SDS011;25997;50.214;19.354;2023-02-15T15:59:29;66.22;;;59.50;;
40284;SDS011;25997;50.214;19.354;2023-02-15T16:02:36;60.95;;;55.20;;
40284;SDS011;25997;50.214;19.354;2023-02-15T16:05:52;64.30;;;58.42;;
40284;SDS011;25997;50.214;19.354;2023-02-15T16:08:56;83.43;;;76.00;;
40284;SDS011;25997;50.214;19.354;2023-02-15T16:11:59;75.80;;;69.22;;
40284;SDS011;25997;50.214;19.354;2023-02-15T16:15:04;64.68;;;46.92;;
40284;SDS011;25997;50.214;19.354;2023-02-15T16:18:18;170.10;;;131.93;;
40284;SDS011;25997;50.214;19.354;2023-02-15T16:21:26;315.33;;;237.85;;
40284;SDS011;25997;50.214;19.354;2023-02-15T16:28:06;145.35;;;118.55;;
40284;SDS011;25997;50.214;19.354;2023-02-15T16:31:12;160.98;;;143.32;;
40284;SDS011;25997;50.214;19.354;2023-02-15T16:34:17;104.22;;;95.32;;
40284;SDS011;25997;50.214;19.354;2023-02-15T16:37:20;117.28;;;106.18;;
40284;SDS011;25997;50.214;19.354;2023-02-15T16:40:35;194.35;;;145.00;;
40284;SDS011;25997;50.214;19.354;2023-02-15T16:43:48;215.98;;;144.93;;
40284;SDS011;25997;50.214;19.354;2023-02-15T16:46:52;189.05;;;125.20;;
40284;SDS011;25997;50.214;19.354;2023-02-15T16:49:57;184.07;;;126.68;;
40284;SDS011;25997;50.214;19.354;2023-02-15T16:53:03;88.43;;;68.90;;
40284;SDS011;25997;50.214;19.354;2023-02-15T16:56:09;139.98;;;99.72;;
40284;SDS011;25997;50.214;19.354;2023-02-15T16:59:16;277.00;;;186.65;;
40284;SDS011;25997;50.214;19.354;2023-02-15T17:02:30;204.07;;;149.90;;
40284;SDS011;25997;50.214;19.354;2023-02-15T17:05:40;139.20;;;115.05;;
40284;SDS011;25997;50.214;19.354;2023-02-15T17:08:46;86.55;;;75.68;;
40284;SDS011;25997;50.214;19.354;2023-02-15T17:11:49;72.57;;;64.22;;
40284;SDS011;25997;50.214;19.354;2023-02-15T17:14:53;73.60;;;58.85;;
40284;SDS011;25997;50.214;19.354;2023-02-15T17:18:02;82.35;;;65.68;;
40284;SDS011;25997;50.214;19.354;2023-02-15T17:21:10;94.63;;;75.87;;
40284;SDS011;25997;50.214;19.354;2023-02-15T17:24:15;98.72;;;76.40;;
40284;SDS011;25997;50.214;19.354;2023-02-15T17:27:20;124.05;;;93.20;;
40284;SDS011;25997;50.214;19.354;2023-02-15T17:30:26;108.97;;;78.05;;
40284;SDS011;25997;50.214;19.354;2023-02-15T17:33:35;101.28;;;74.43;;
40284;SDS011;25997;50.214;19.354;2023-02-15T17:36:41;123.40;;;97.60;;
40284;SDS011;25997;50.214;19.354;2023-02-15T17:39:59;134.18;;;94.82;;
40284;SDS011;25997;50.214;19.354;2023-02-15T17:43:03;92.65;;;72.90;;
40284;SDS011;25997;50.214;19.354;2023-02-15T17:46:07;79.70;;;65.07;;
40284;SDS011;25997;50.214;19.354;2023-02-15T17:49:13;70.38;;;56.53;;
40284;SDS011;25997;50.214;19.354;2023-02-15T17:52:26;84.43;;;58.38;;
40284;SDS011;25997;50.214;19.354;2023-02-15T17:55:31;125.90;;;78.43;;
40284;SDS011;25997;50.214;19.354;2023-02-15T17:58:38;137.82;;;90.38;;
40284;SDS011;25997;50.214;19.354;2023-02-15T18:01:42;117.78;;;85.40;;
40284;SDS011;25997;50.214;19.354;2023-02-15T18:05:07;109.35;;;83.55;;
40284;SDS011;25997;50.214;19.354;2023-02-15T18:08:32;96.93;;;73.43;;
40284;SDS011;25997;50.214;19.354;2023-02-15T18:11:52;87.95;;;68.07;;
40284;SDS011;25997;50.214;19.354;2023-02-15T18:14:56;77.22;;;59.42;;
40284;SDS011;25997;50.214;19.354;2023-02-15T18:17:59;65.88;;;49.72;;
40284;SDS011;25997;50.214;19.354;2023-02-15T18:21:03;69.07;;;50.72;;
40284;SDS011;25997;50.214;19.354;2023-02-15T18:24:13;65.80;;;48.22;;
40284;SDS011;25997;50.214;19.354;2023-02-15T18:27:17;62.38;;;42.17;;
40284;SDS011;25997;50.214;19.354;2023-02-15T18:30:21;58.03;;;42.90;;
40284;SDS011;25997;50.214;19.354;2023-02-15T18:33:29;61.13;;;48.65;;
40284;SDS011;25997;50.214;19.354;2023-02-15T18:36:39;72.03;;;55.92;;
40284;SDS011;25997;50.214;19.354;2023-02-15T18:39:52;80.55;;;63.30;;
40284;SDS011;25997;50.214;19.354;2023-02-15T18:42:57;159.18;;;105.32;;